Anthony, Florida
Current Conditions -  °F | °C
As of 6:50 PM on Friday 31 Oct 2014 (Local Time) from KOCF Reporting Station
Clear Clear  
Wind Chill: 19°   Ceiling: Unl
Heat Index: 19°   Visibility: 10mi
Dew Point:   Wind: 3mph
Humidity: 43%   Direction: 300°WNW
Pressure: 29.85"   Gusts: NA
Location:  29.29°N, 82.11°W
Report Text: KOCF 312250Z 30003KT 10SM CLR 19/06 A2985
Loading
Personal Weather Stations






























Interactive Weather Map New forecast layout! Learn more

10-Day Weather Forecast

Advertisements
Track Severe Weather on mobile